SBOSBO PIT / KPIT
Speedbird OnlineSpeedbird Online PIT / KPIT

Pittsburgh International Airport
09:30 -5.6°C

Location Pittsburgh, United States
Latitude: 40.49150085
Longitude: -80.23290253
Web Wikipedia
Altitude 367 Meter / 1203 Feet
Distance 6,006 KM / 3,732 Miles
from London.
Time Zone UTC -5 hours (America/New_York)
Codes IATA: PIT
ICAO: KPIT
Currency £1 equals USD 1.23
Runways
RunwayLength (m)Surface
10C2959Partial
10L3201Partial
10R3505Concrete
142469Concrete
28C2959Partial
28L3505Concrete
28R3201Partial
322469Concrete
Radio
TypeDescriptionFrequency
APPAPP120.875
APPAPP36.08
ATISATIS127.25
CLDCLNC DEL126.75
DEPDEP118.65
GNDGND121.9
OPSANG OPS31.1
POSTPITT COMD POST25.21
RDOALTOONA RDO112
RMPRAMP CON131.375
TWRTWR119.1
UNICUNICOM122.95
Live ATC
METAR KPIT 311351Z 34007KT 10SM OVC013 M06/M09 A3029 RMK AO2 SLP280 T10561089
TAF KPIT 311120Z 3112/0118 33007KT 6SM -SN OVC015 FM311400 33007KT P6SM BKN015 FM311900 32005KT P6SM BKN022 FM312200 31004KT P6SM BKN035 FM010700 32005KT P6SM BKN060
Weather As Of 31 Jan 2023 09:30
Description Overcast clouds
Wind 13 km/h from North (340°)
Cloud Cover 100%
Precipitation Rain: none, Snow: none
Sunrise 07:31
Sunset 17:36
Lounges American Airlines Admirals Club, Main Terminal
Rotations During the last 90 days there were
47 flights from LHR
50 flights to LHR
1 flights to CWL



Support Speedbird Online

© 2017-2023 Speedbird Online